sensor_id;sensor_type;location;lat;lon;timestamp;P1;durP1;ratioP1;P2;durP2;ratioP2
35444;SDS011;21562;49.476;6.086;2023-03-09T00:01:22;3.72;;;0.65;;
35444;SDS011;21562;49.476;6.086;2023-03-09T00:03:50;3.55;;;0.93;;
35444;SDS011;21562;49.476;6.086;2023-03-09T00:06:16;5.68;;;0.68;;
35444;SDS011;21562;49.476;6.086;2023-03-09T00:08:42;3.67;;;0.82;;
35444;SDS011;21562;49.476;6.086;2023-03-09T00:11:08;4.40;;;0.88;;
35444;SDS011;21562;49.476;6.086;2023-03-09T00:13:34;6.55;;;0.82;;
35444;SDS011;21562;49.476;6.086;2023-03-09T00:16:06;2.55;;;0.80;;
35444;SDS011;21562;49.476;6.086;2023-03-09T00:18:40;1.17;;;0.40;;
35444;SDS011;21562;49.476;6.086;2023-03-09T00:21:06;2.33;;;0.40;;
35444;SDS011;21562;49.476;6.086;2023-03-09T00:23:32;2.78;;;0.25;;
35444;SDS011;21562;49.476;6.086;2023-03-09T00:26:05;4.55;;;0.50;;
35444;SDS011;21562;49.476;6.086;2023-03-09T00:28:31;2.55;;;0.32;;
35444;SDS011;21562;49.476;6.086;2023-03-09T00:31:04;3.22;;;1.00;;
35444;SDS011;21562;49.476;6.086;2023-03-09T00:33:31;2.65;;;0.60;;
35444;SDS011;21562;49.476;6.086;2023-03-09T00:35:57;3.20;;;0.60;;
35444;SDS011;21562;49.476;6.086;2023-03-09T00:38:23;3.33;;;0.50;;
35444;SDS011;21562;49.476;6.086;2023-03-09T00:40:49;2.20;;;0.50;;
35444;SDS011;21562;49.476;6.086;2023-03-09T00:43:15;2.88;;;0.52;;
35444;SDS011;21562;49.476;6.086;2023-03-09T00:45:41;9.57;;;0.98;;
35444;SDS011;21562;49.476;6.086;2023-03-09T00:48:06;4.05;;;0.77;;
35444;SDS011;21562;49.476;6.086;2023-03-09T00:50:32;2.35;;;0.60;;
35444;SDS011;21562;49.476;6.086;2023-03-09T00:52:57;1.73;;;0.73;;
35444;SDS011;21562;49.476;6.086;2023-03-09T00:55:23;4.70;;;0.50;;
35444;SDS011;21562;49.476;6.086;2023-03-09T00:57:49;7.30;;;0.43;;
35444;SDS011;21562;49.476;6.086;2023-03-09T01:00:15;5.93;;;0.65;;
35444;SDS011;21562;49.476;6.086;2023-03-09T01:02:40;9.35;;;0.65;;
35444;SDS011;21562;49.476;6.086;2023-03-09T01:05:06;2.58;;;0.63;;
35444;SDS011;21562;49.476;6.086;2023-03-09T01:07:32;4.00;;;1.23;;
35444;SDS011;21562;49.476;6.086;2023-03-09T01:09:59;3.53;;;0.60;;
35444;SDS011;21562;49.476;6.086;2023-03-09T01:12:25;8.40;;;1.10;;
35444;SDS011;21562;49.476;6.086;2023-03-09T01:14:55;4.53;;;0.70;;
35444;SDS011;21562;49.476;6.086;2023-03-09T01:17:21;3.17;;;0.75;;
35444;SDS011;21562;49.476;6.086;2023-03-09T01:19:46;6.35;;;0.80;;
35444;SDS011;21562;49.476;6.086;2023-03-09T01:22:12;4.45;;;1.00;;
35444;SDS011;21562;49.476;6.086;2023-03-09T01:24:38;4.63;;;0.90;;
35444;SDS011;21562;49.476;6.086;2023-03-09T01:27:04;5.97;;;1.10;;
35444;SDS011;21562;49.476;6.086;2023-03-09T01:29:31;4.85;;;0.93;;
35444;SDS011;21562;49.476;6.086;2023-03-09T01:31:56;6.03;;;1.10;;
35444;SDS011;21562;49.476;6.086;2023-03-09T01:34:22;5.20;;;0.88;;
35444;SDS011;21562;49.476;6.086;2023-03-09T01:36:48;3.38;;;0.73;;
35444;SDS011;21562;49.476;6.086;2023-03-09T01:39:13;5.47;;;1.20;;
35444;SDS011;21562;49.476;6.086;2023-03-09T01:41:39;5.82;;;0.73;;
35444;SDS011;21562;49.476;6.086;2023-03-09T01:44:05;4.57;;;1.00;;
35444;SDS011;21562;49.476;6.086;2023-03-09T01:46:32;5.60;;;0.80;;
35444;SDS011;21562;49.476;6.086;2023-03-09T01:54:19;6.35;;;1.13;;
35444;SDS011;21562;49.476;6.086;2023-03-09T01:57:14;12.32;;;1.23;;
35444;SDS011;21562;49.476;6.086;2023-03-09T01:59:55;7.50;;;1.50;;
35444;SDS011;21562;49.476;6.086;2023-03-09T02:02:25;5.88;;;1.58;;
35444;SDS011;21562;49.476;6.086;2023-03-09T02:04:55;8.18;;;1.77;;
35444;SDS011;21562;49.476;6.086;2023-03-09T02:07:24;12.38;;;1.75;;
35444;SDS011;21562;49.476;6.086;2023-03-09T02:09:54;10.30;;;1.48;;
35444;SDS011;21562;49.476;6.086;2023-03-09T02:12:43;8.80;;;1.70;;
35444;SDS011;21562;49.476;6.086;2023-03-09T02:15:17;10.45;;;1.95;;
35444;SDS011;21562;49.476;6.086;2023-03-09T02:17:46;12.30;;;1.85;;
35444;SDS011;21562;49.476;6.086;2023-03-09T02:22:58;7.82;;;1.88;;
35444;SDS011;21562;49.476;6.086;2023-03-09T02:27:50;13.20;;;2.58;;
35444;SDS011;21562;49.476;6.086;2023-03-09T02:30:17;14.95;;;2.28;;
35444;SDS011;21562;49.476;6.086;2023-03-09T02:32:43;16.73;;;2.53;;
35444;SDS011;21562;49.476;6.086;2023-03-09T02:35:09;22.88;;;2.95;;
35444;SDS011;21562;49.476;6.086;2023-03-09T02:37:38;10.65;;;1.77;;
35444;SDS011;21562;49.476;6.086;2023-03-09T02:40:15;18.58;;;3.40;;
35444;SDS011;21562;49.476;6.086;2023-03-09T02:42:57;15.07;;;2.25;;
35444;SDS011;21562;49.476;6.086;2023-03-09T02:45:26;22.73;;;2.65;;
35444;SDS011;21562;49.476;6.086;2023-03-09T02:47:53;15.63;;;2.42;;
35444;SDS011;21562;49.476;6.086;2023-03-09T02:50:20;21.00;;;1.88;;
35444;SDS011;21562;49.476;6.086;2023-03-09T02:52:46;18.52;;;2.53;;
35444;SDS011;21562;49.476;6.086;2023-03-09T02:55:12;16.42;;;3.17;;
35444;SDS011;21562;49.476;6.086;2023-03-09T02:57:38;13.00;;;2.20;;
35444;SDS011;21562;49.476;6.086;2023-03-09T03:00:05;20.10;;;2.78;;
35444;SDS011;21562;49.476;6.086;2023-03-09T03:02:33;15.27;;;2.72;;
35444;SDS011;21562;49.476;6.086;2023-03-09T03:04:59;19.88;;;3.33;;
35444;SDS011;21562;49.476;6.086;2023-03-09T03:07:25;17.85;;;3.67;;
35444;SDS011;21562;49.476;6.086;2023-03-09T03:09:51;13.35;;;2.38;;
35444;SDS011;21562;49.476;6.086;2023-03-09T03:12:16;17.67;;;3.63;;
35444;SDS011;21562;49.476;6.086;2023-03-09T03:14:43;16.65;;;3.35;;
35444;SDS011;21562;49.476;6.086;2023-03-09T03:17:09;14.32;;;2.58;;
35444;SDS011;21562;49.476;6.086;2023-03-09T03:19:35;25.67;;;3.63;;
35444;SDS011;21562;49.476;6.086;2023-03-09T03:22:00;16.52;;;3.00;;
35444;SDS011;21562;49.476;6.086;2023-03-09T03:24:26;23.48;;;3.30;;
35444;SDS011;21562;49.476;6.086;2023-03-09T03:26:52;15.82;;;3.17;;
35444;SDS011;21562;49.476;6.086;2023-03-09T03:29:17;17.85;;;3.47;;
35444;SDS011;21562;49.476;6.086;2023-03-09T03:31:43;19.13;;;3.42;;
35444;SDS011;21562;49.476;6.086;2023-03-09T03:34:08;17.05;;;2.97;;
35444;SDS011;21562;49.476;6.086;2023-03-09T03:36:34;15.98;;;3.28;;
35444;SDS011;21562;49.476;6.086;2023-03-09T03:39:00;17.02;;;2.92;;
35444;SDS011;21562;49.476;6.086;2023-03-09T03:41:25;14.90;;;3.30;;
35444;SDS011;21562;49.476;6.086;2023-03-09T03:43:51;13.95;;;3.88;;
35444;SDS011;21562;49.476;6.086;2023-03-09T03:46:16;15.70;;;3.30;;
35444;SDS011;21562;49.476;6.086;2023-03-09T03:48:43;17.85;;;3.42;;
35444;SDS011;21562;49.476;6.086;2023-03-09T03:51:09;18.25;;;3.78;;
35444;SDS011;21562;49.476;6.086;2023-03-09T03:53:35;16.83;;;3.65;;
35444;SDS011;21562;49.476;6.086;2023-03-09T03:56:00;29.08;;;4.68;;
35444;SDS011;21562;49.476;6.086;2023-03-09T03:58:28;17.20;;;3.40;;
35444;SDS011;21562;49.476;6.086;2023-03-09T04:00:54;23.35;;;3.58;;
35444;SDS011;21562;49.476;6.086;2023-03-09T04:03:19;13.05;;;3.38;;
35444;SDS011;21562;49.476;6.086;2023-03-09T04:05:45;20.23;;;3.10;;
35444;SDS011;21562;49.476;6.086;2023-03-09T04:08:11;23.10;;;3.78;;
35444;SDS011;21562;49.476;6.086;2023-03-09T04:10:40;17.35;;;2.47;;
35444;SDS011;21562;49.476;6.086;2023-03-09T04:13:06;17.80;;;2.83;;
35444;SDS011;21562;49.476;6.086;2023-03-09T04:15:32;16.50;;;2.72;;
35444;SDS011;21562;49.476;6.086;2023-03-09T04:17:58;16.98;;;2.80;;
35444;SDS011;21562;49.476;6.086;2023-03-09T04:20:24;14.75;;;2.65;;
35444;SDS011;21562;49.476;6.086;2023-03-09T04:22:51;17.65;;;2.80;;
35444;SDS011;21562;49.476;6.086;2023-03-09T04:25:16;16.65;;;3.20;;
35444;SDS011;21562;49.476;6.086;2023-03-09T04:27:43;13.23;;;2.25;;
35444;SDS011;21562;49.476;6.086;2023-03-09T04:30:08;14.00;;;2.75;;
35444;SDS011;21562;49.476;6.086;2023-03-09T04:32:35;15.45;;;2.55;;
35444;SDS011;21562;49.476;6.086;2023-03-09T04:35:01;9.75;;;1.85;;
35444;SDS011;21562;49.476;6.086;2023-03-09T04:37:26;9.35;;;2.40;;
35444;SDS011;21562;49.476;6.086;2023-03-09T04:39:52;11.70;;;2.60;;
35444;SDS011;21562;49.476;6.086;2023-03-09T04:42:18;19.10;;;3.83;;
35444;SDS011;21562;49.476;6.086;2023-03-09T04:44:43;8.77;;;2.10;;
35444;SDS011;21562;49.476;6.086;2023-03-09T04:47:10;11.95;;;1.80;;
35444;SDS011;21562;49.476;6.086;2023-03-09T04:49:38;11.23;;;2.05;;
35444;SDS011;21562;49.476;6.086;2023-03-09T04:52:07;17.55;;;2.15;;
35444;SDS011;21562;49.476;6.086;2023-03-09T04:54:33;7.85;;;1.40;;
35444;SDS011;21562;49.476;6.086;2023-03-09T04:56:59;11.82;;;2.10;;
35444;SDS011;21562;49.476;6.086;2023-03-09T04:59:24;10.80;;;2.53;;
35444;SDS011;21562;49.476;6.086;2023-03-09T05:01:50;12.65;;;2.28;;
35444;SDS011;21562;49.476;6.086;2023-03-09T05:04:15;11.68;;;2.30;;
35444;SDS011;21562;49.476;6.086;2023-03-09T05:06:41;14.27;;;2.13;;
35444;SDS011;21562;49.476;6.086;2023-03-09T05:09:09;9.82;;;1.50;;
35444;SDS011;21562;49.476;6.086;2023-03-09T05:11:36;12.00;;;1.60;;
35444;SDS011;21562;49.476;6.086;2023-03-09T05:14:01;11.43;;;1.60;;
35444;SDS011;21562;49.476;6.086;2023-03-09T05:16:27;7.78;;;1.73;;
35444;SDS011;21562;49.476;6.086;2023-03-09T05:18:53;7.30;;;1.45;;
35444;SDS011;21562;49.476;6.086;2023-03-09T05:21:18;5.10;;;1.50;;
35444;SDS011;21562;49.476;6.086;2023-03-09T05:23:44;7.93;;;1.58;;
35444;SDS011;21562;49.476;6.086;2023-03-09T05:26:10;7.28;;;1.60;;
35444;SDS011;21562;49.476;6.086;2023-03-09T05:28:36;5.65;;;1.30;;
35444;SDS011;21562;49.476;6.086;2023-03-09T05:31:07;7.70;;;1.58;;
35444;SDS011;21562;49.476;6.086;2023-03-09T05:33:34;11.00;;;1.70;;
35444;SDS011;21562;49.476;6.086;2023-03-09T05:36:00;10.98;;;1.77;;
35444;SDS011;21562;49.476;6.086;2023-03-09T05:38:25;5.80;;;1.27;;
35444;SDS011;21562;49.476;6.086;2023-03-09T05:40:51;12.13;;;1.70;;
35444;SDS011;21562;49.476;6.086;2023-03-09T05:43:17;6.03;;;1.67;;
35444;SDS011;21562;49.476;6.086;2023-03-09T05:45:42;5.07;;;1.27;;
35444;SDS011;21562;49.476;6.086;2023-03-09T05:48:08;6.72;;;1.27;;
35444;SDS011;21562;49.476;6.086;2023-03-09T05:50:34;7.65;;;1.85;;
35444;SDS011;21562;49.476;6.086;2023-03-09T05:53:01;10.68;;;1.65;;
35444;SDS011;21562;49.476;6.086;2023-03-09T05:55:27;9.60;;;1.50;;
35444;SDS011;21562;49.476;6.086;2023-03-09T05:57:52;12.02;;;2.20;;
35444;SDS011;21562;49.476;6.086;2023-03-09T06:00:18;14.30;;;2.00;;
35444;SDS011;21562;49.476;6.086;2023-03-09T06:02:44;13.77;;;1.83;;
35444;SDS011;21562;49.476;6.086;2023-03-09T06:05:10;12.82;;;1.50;;
35444;SDS011;21562;49.476;6.086;2023-03-09T06:07:35;13.43;;;2.30;;
35444;SDS011;21562;49.476;6.086;2023-03-09T06:10:01;13.75;;;2.05;;
35444;SDS011;21562;49.476;6.086;2023-03-09T06:12:27;13.18;;;1.73;;
35444;SDS011;21562;49.476;6.086;2023-03-09T06:14:53;14.35;;;1.83;;
35444;SDS011;21562;49.476;6.086;2023-03-09T06:17:18;9.82;;;1.75;;
35444;SDS011;21562;49.476;6.086;2023-03-09T06:19:44;15.77;;;2.55;;
35444;SDS011;21562;49.476;6.086;2023-03-09T06:22:10;13.32;;;2.10;;
35444;SDS011;21562;49.476;6.086;2023-03-09T06:24:36;12.38;;;2.22;;
35444;SDS011;21562;49.476;6.086;2023-03-09T06:27:01;10.10;;;2.72;;
35444;SDS011;21562;49.476;6.086;2023-03-09T06:29:28;12.88;;;1.90;;
35444;SDS011;21562;49.476;6.086;2023-03-09T06:31:54;16.63;;;1.98;;
35444;SDS011;21562;49.476;6.086;2023-03-09T06:34:19;26.35;;;3.95;;
35444;SDS011;21562;49.476;6.086;2023-03-09T06:36:45;15.80;;;3.08;;
35444;SDS011;21562;49.476;6.086;2023-03-09T06:39:11;12.95;;;2.75;;
35444;SDS011;21562;49.476;6.086;2023-03-09T06:41:37;11.38;;;2.45;;
35444;SDS011;21562;49.476;6.086;2023-03-09T06:44:03;16.98;;;2.65;;
35444;SDS011;21562;49.476;6.086;2023-03-09T06:46:28;12.15;;;3.08;;
35444;SDS011;21562;49.476;6.086;2023-03-09T06:48:55;8.20;;;1.67;;
35444;SDS011;21562;49.476;6.086;2023-03-09T06:51:20;15.88;;;2.30;;
35444;SDS011;21562;49.476;6.086;2023-03-09T06:53:46;13.35;;;2.22;;
35444;SDS011;21562;49.476;6.086;2023-03-09T06:56:12;19.33;;;3.63;;
35444;SDS011;21562;49.476;6.086;2023-03-09T06:58:38;21.38;;;2.90;;
35444;SDS011;21562;49.476;6.086;2023-03-09T07:01:12;16.45;;;3.20;;
35444;SDS011;21562;49.476;6.086;2023-03-09T07:03:40;21.65;;;3.50;;
35444;SDS011;21562;49.476;6.086;2023-03-09T07:06:06;19.00;;;3.20;;
35444;SDS011;21562;49.476;6.086;2023-03-09T07:08:32;15.98;;;2.40;;
35444;SDS011;21562;49.476;6.086;2023-03-09T07:10:58;11.90;;;2.80;;
35444;SDS011;21562;49.476;6.086;2023-03-09T07:13:24;20.17;;;2.92;;
35444;SDS011;21562;49.476;6.086;2023-03-09T07:15:50;21.50;;;3.10;;
35444;SDS011;21562;49.476;6.086;2023-03-09T07:18:15;19.27;;;3.00;;
35444;SDS011;21562;49.476;6.086;2023-03-09T07:20:41;19.50;;;2.38;;
35444;SDS011;21562;49.476;6.086;2023-03-09T07:23:07;22.92;;;3.00;;
35444;SDS011;21562;49.476;6.086;2023-03-09T07:25:34;16.67;;;3.08;;
35444;SDS011;21562;49.476;6.086;2023-03-09T07:28:01;14.45;;;2.70;;
35444;SDS011;21562;49.476;6.086;2023-03-09T07:30:30;14.95;;;2.95;;
35444;SDS011;21562;49.476;6.086;2023-03-09T07:32:57;15.25;;;2.55;;
35444;SDS011;21562;49.476;6.086;2023-03-09T07:35:23;15.05;;;1.70;;
35444;SDS011;21562;49.476;6.086;2023-03-09T07:37:49;19.25;;;3.42;;
35444;SDS011;21562;49.476;6.086;2023-03-09T07:40:15;28.20;;;4.28;;
35444;SDS011;21562;49.476;6.086;2023-03-09T07:42:41;23.05;;;3.53;;
35444;SDS011;21562;49.476;6.086;2023-03-09T07:45:07;15.18;;;2.33;;
35444;SDS011;21562;49.476;6.086;2023-03-09T07:47:33;31.75;;;5.63;;
35444;SDS011;21562;49.476;6.086;2023-03-09T07:49:59;19.90;;;3.63;;
35444;SDS011;21562;49.476;6.086;2023-03-09T07:52:25;24.45;;;4.13;;
35444;SDS011;21562;49.476;6.086;2023-03-09T07:54:58;18.60;;;2.60;;
35444;SDS011;21562;49.476;6.086;2023-03-09T07:57:29;24.15;;;5.22;;
35444;SDS011;21562;49.476;6.086;2023-03-09T07:59:56;28.70;;;3.67;;
35444;SDS011;21562;49.476;6.086;2023-03-09T08:02:22;25.42;;;2.40;;
35444;SDS011;21562;49.476;6.086;2023-03-09T08:04:47;15.93;;;2.72;;
35444;SDS011;21562;49.476;6.086;2023-03-09T08:07:13;17.08;;;2.85;;
35444;SDS011;21562;49.476;6.086;2023-03-09T08:09:39;18.15;;;2.80;;
35444;SDS011;21562;49.476;6.086;2023-03-09T08:12:05;21.33;;;2.40;;
35444;SDS011;21562;49.476;6.086;2023-03-09T08:14:31;18.55;;;3.70;;
35444;SDS011;21562;49.476;6.086;2023-03-09T08:16:56;21.38;;;3.33;;
35444;SDS011;21562;49.476;6.086;2023-03-09T08:19:22;14.02;;;2.38;;
35444;SDS011;21562;49.476;6.086;2023-03-09T08:21:48;24.15;;;3.22;;
35444;SDS011;21562;49.476;6.086;2023-03-09T08:24:15;16.80;;;2.78;;
35444;SDS011;21562;49.476;6.086;2023-03-09T08:26:41;17.25;;;2.58;;
35444;SDS011;21562;49.476;6.086;2023-03-09T08:29:06;13.15;;;3.35;;
35444;SDS011;21562;49.476;6.086;2023-03-09T08:31:33;26.90;;;9.60;;
35444;SDS011;21562;49.476;6.086;2023-03-09T08:33:59;28.20;;;7.40;;
35444;SDS011;21562;49.476;6.086;2023-03-09T08:36:25;25.30;;;7.82;;
35444;SDS011;21562;49.476;6.086;2023-03-09T08:38:51;27.17;;;6.03;;
35444;SDS011;21562;49.476;6.086;2023-03-09T08:41:17;16.85;;;2.00;;
35444;SDS011;21562;49.476;6.086;2023-03-09T08:43:43;15.82;;;2.25;;
35444;SDS011;21562;49.476;6.086;2023-03-09T08:46:09;23.88;;;3.20;;
35444;SDS011;21562;49.476;6.086;2023-03-09T08:48:35;17.52;;;2.83;;
35444;SDS011;21562;49.476;6.086;2023-03-09T08:51:02;23.80;;;2.47;;
35444;SDS011;21562;49.476;6.086;2023-03-09T08:53:31;16.90;;;2.33;;
35444;SDS011;21562;49.476;6.086;2023-03-09T08:56:04;16.52;;;2.97;;
35444;SDS011;21562;49.476;6.086;2023-03-09T08:58:31;17.83;;;2.92;;
35444;SDS011;21562;49.476;6.086;2023-03-09T09:00:59;17.65;;;3.50;;
35444;SDS011;21562;49.476;6.086;2023-03-09T09:03:28;20.10;;;2.63;;
35444;SDS011;21562;49.476;6.086;2023-03-09T09:05:54;15.18;;;2.45;;
35444;SDS011;21562;49.476;6.086;2023-03-09T09:08:21;13.88;;;2.72;;
35444;SDS011;21562;49.476;6.086;2023-03-09T09:10:46;19.25;;;3.05;;
35444;SDS011;21562;49.476;6.086;2023-03-09T09:13:12;17.45;;;3.88;;
35444;SDS011;21562;49.476;6.086;2023-03-09T09:15:38;19.23;;;4.93;;
35444;SDS011;21562;49.476;6.086;2023-03-09T09:18:06;13.48;;;2.47;;
35444;SDS011;21562;49.476;6.086;2023-03-09T09:20:31;23.88;;;2.08;;
35444;SDS011;21562;49.476;6.086;2023-03-09T09:22:57;16.88;;;2.47;;
35444;SDS011;21562;49.476;6.086;2023-03-09T09:25:23;18.00;;;2.42;;
35444;SDS011;21562;49.476;6.086;2023-03-09T09:27:49;15.40;;;3.13;;
35444;SDS011;21562;49.476;6.086;2023-03-09T09:30:15;19.45;;;4.75;;
35444;SDS011;21562;49.476;6.086;2023-03-09T09:32:42;13.82;;;2.17;;
35444;SDS011;21562;49.476;6.086;2023-03-09T09:35:09;15.05;;;2.22;;
35444;SDS011;21562;49.476;6.086;2023-03-09T09:37:39;19.98;;;2.50;;
35444;SDS011;21562;49.476;6.086;2023-03-09T09:40:08;20.17;;;4.47;;
35444;SDS011;21562;49.476;6.086;2023-03-09T09:42:37;20.83;;;2.63;;
35444;SDS011;21562;49.476;6.086;2023-03-09T09:45:09;17.05;;;3.72;;
35444;SDS011;21562;49.476;6.086;2023-03-09T09:47:51;25.20;;;2.80;;
35444;SDS011;21562;49.476;6.086;2023-03-09T09:50:17;19.40;;;2.05;;
35444;SDS011;21562;49.476;6.086;2023-03-09T09:57:58;23.52;;;5.25;;
35444;SDS011;21562;49.476;6.086;2023-03-09T10:10:45;14.18;;;3.58;;
35444;SDS011;21562;49.476;6.086;2023-03-09T10:13:13;17.85;;;2.83;;
35444;SDS011;21562;49.476;6.086;2023-03-09T10:15:43;20.50;;;2.60;;
35444;SDS011;21562;49.476;6.086;2023-03-09T10:18:11;18.20;;;3.38;;
35444;SDS011;21562;49.476;6.086;2023-03-09T10:20:44;20.60;;;2.95;;
35444;SDS011;21562;49.476;6.086;2023-03-09T10:25:57;19.17;;;3.00;;
35444;SDS011;21562;49.476;6.086;2023-03-09T10:28:48;20.23;;;2.70;;
35444;SDS011;21562;49.476;6.086;2023-03-09T10:31:39;19.95;;;3.40;;
35444;SDS011;21562;49.476;6.086;2023-03-09T10:34:23;22.17;;;3.53;;
35444;SDS011;21562;49.476;6.086;2023-03-09T10:37:00;20.95;;;2.45;;
35444;SDS011;21562;49.476;6.086;2023-03-09T10:39:32;15.00;;;3.67;;
35444;SDS011;21562;49.476;6.086;2023-03-09T10:42:15;22.52;;;2.72;;
35444;SDS011;21562;49.476;6.086;2023-03-09T10:45:01;17.98;;;2.60;;
35444;SDS011;21562;49.476;6.086;2023-03-09T10:50:23;20.88;;;3.15;;
35444;SDS011;21562;49.476;6.086;2023-03-09T10:52:54;15.57;;;2.35;;
35444;SDS011;21562;49.476;6.086;2023-03-09T10:55:43;18.20;;;2.38;;
35444;SDS011;21562;49.476;6.086;2023-03-09T10:58:17;25.55;;;3.10;;
35444;SDS011;21562;49.476;6.086;2023-03-09T11:00:58;15.07;;;2.35;;
35444;SDS011;21562;49.476;6.086;2023-03-09T11:03:38;16.08;;;2.50;;
35444;SDS011;21562;49.476;6.086;2023-03-09T11:08:37;19.52;;;2.60;;
35444;SDS011;21562;49.476;6.086;2023-03-09T11:11:14;18.08;;;2.58;;
35444;SDS011;21562;49.476;6.086;2023-03-09T11:13:45;19.38;;;2.55;;
35444;SDS011;21562;49.476;6.086;2023-03-09T11:16:15;18.13;;;3.40;;
35444;SDS011;21562;49.476;6.086;2023-03-09T11:18:47;35.15;;;4.40;;
35444;SDS011;21562;49.476;6.086;2023-03-09T11:21:22;19.10;;;3.45;;
35444;SDS011;21562;49.476;6.086;2023-03-09T11:23:49;23.33;;;3.70;;
35444;SDS011;21562;49.476;6.086;2023-03-09T11:32:06;22.38;;;2.60;;
35444;SDS011;21562;49.476;6.086;2023-03-09T11:34:35;20.20;;;3.15;;
35444;SDS011;21562;49.476;6.086;2023-03-09T11:39:42;24.00;;;3.08;;
35444;SDS011;21562;49.476;6.086;2023-03-09T11:45:04;28.30;;;5.00;;
35444;SDS011;21562;49.476;6.086;2023-03-09T12:02:01;43.47;;;4.32;;
35444;SDS011;21562;49.476;6.086;2023-03-09T12:04:51;37.65;;;7.47;;
35444;SDS011;21562;49.476;6.086;2023-03-09T12:15:45;27.80;;;5.75;;
35444;SDS011;21562;49.476;6.086;2023-03-09T12:18:17;41.15;;;4.57;;
35444;SDS011;21562;49.476;6.086;2023-03-09T12:20:49;23.98;;;3.30;;
35444;SDS011;21562;49.476;6.086;2023-03-09T12:26:02;22.52;;;3.83;;
35444;SDS011;21562;49.476;6.086;2023-03-09T12:28:31;33.60;;;3.97;;
35444;SDS011;21562;49.476;6.086;2023-03-09T12:30:59;18.38;;;3.53;;
35444;SDS011;21562;49.476;6.086;2023-03-09T12:36:21;24.50;;;4.30;;
35444;SDS011;21562;49.476;6.086;2023-03-09T12:42:03;24.65;;;3.75;;
35444;SDS011;21562;49.476;6.086;2023-03-09T12:47:21;27.60;;;3.10;;
35444;SDS011;21562;49.476;6.086;2023-03-09T12:50:01;22.40;;;4.00;;
35444;SDS011;21562;49.476;6.086;2023-03-09T13:03:47;32.30;;;3.85;;
35444;SDS011;21562;49.476;6.086;2023-03-09T13:06:26;34.40;;;4.00;;
35444;SDS011;21562;49.476;6.086;2023-03-09T13:12:29;29.10;;;3.90;;
35444;SDS011;21562;49.476;6.086;2023-03-09T13:17:40;25.15;;;3.72;;
35444;SDS011;21562;49.476;6.086;2023-03-09T13:22:49;24.95;;;3.83;;
35444;SDS011;21562;49.476;6.086;2023-03-09T13:25:30;19.70;;;3.58;;
35444;SDS011;21562;49.476;6.086;2023-03-09T13:28:03;27.95;;;3.33;;
35444;SDS011;21562;49.476;6.086;2023-03-09T13:30:45;24.27;;;3.60;;
35444;SDS011;21562;49.476;6.086;2023-03-09T13:33:14;29.83;;;3.95;;
35444;SDS011;21562;49.476;6.086;2023-03-09T13:35:50;27.00;;;4.13;;
35444;SDS011;21562;49.476;6.086;2023-03-09T13:38:26;23.85;;;3.65;;
35444;SDS011;21562;49.476;6.086;2023-03-09T13:40:55;25.80;;;3.35;;
35444;SDS011;21562;49.476;6.086;2023-03-09T13:43:29;32.28;;;3.92;;
35444;SDS011;21562;49.476;6.086;2023-03-09T13:48:51;20.47;;;2.97;;
35444;SDS011;21562;49.476;6.086;2023-03-09T13:53:54;37.45;;;3.83;;
35444;SDS011;21562;49.476;6.086;2023-03-09T13:56:20;28.67;;;3.90;;
35444;SDS011;21562;49.476;6.086;2023-03-09T13:58:46;20.60;;;3.72;;
35444;SDS011;21562;49.476;6.086;2023-03-09T14:01:26;26.80;;;2.80;;
35444;SDS011;21562;49.476;6.086;2023-03-09T14:03:54;34.05;;;4.25;;
35444;SDS011;21562;49.476;6.086;2023-03-09T14:06:32;28.02;;;3.83;;
35444;SDS011;21562;49.476;6.086;2023-03-09T14:09:20;28.90;;;4.50;;
35444;SDS011;21562;49.476;6.086;2023-03-09T14:11:55;24.67;;;3.33;;
35444;SDS011;21562;49.476;6.086;2023-03-09T14:14:22;27.23;;;3.35;;
35444;SDS011;21562;49.476;6.086;2023-03-09T14:16:50;26.40;;;3.67;;
35444;SDS011;21562;49.476;6.086;2023-03-09T14:19:21;29.77;;;3.33;;
35444;SDS011;21562;49.476;6.086;2023-03-09T14:21:50;28.80;;;3.67;;
35444;SDS011;21562;49.476;6.086;2023-03-09T14:26:50;30.17;;;4.38;;
35444;SDS011;21562;49.476;6.086;2023-03-09T14:31:41;24.48;;;4.45;;
35444;SDS011;21562;49.476;6.086;2023-03-09T14:36:46;24.15;;;3.55;;
35444;SDS011;21562;49.476;6.086;2023-03-09T14:39:30;28.95;;;3.35;;
35444;SDS011;21562;49.476;6.086;2023-03-09T14:42:02;28.73;;;3.45;;
35444;SDS011;21562;49.476;6.086;2023-03-09T14:47:15;27.60;;;3.38;;
35444;SDS011;21562;49.476;6.086;2023-03-09T14:49:45;19.70;;;2.92;;
35444;SDS011;21562;49.476;6.086;2023-03-09T14:52:15;23.02;;;3.42;;
35444;SDS011;21562;49.476;6.086;2023-03-09T14:54:41;23.30;;;3.78;;
35444;SDS011;21562;49.476;6.086;2023-03-09T14:57:11;20.17;;;3.38;;
35444;SDS011;21562;49.476;6.086;2023-03-09T14:59:38;31.23;;;3.97;;
35444;SDS011;21562;49.476;6.086;2023-03-09T15:02:05;19.17;;;3.10;;
35444;SDS011;21562;49.476;6.086;2023-03-09T15:04:33;28.27;;;3.47;;
35444;SDS011;21562;49.476;6.086;2023-03-09T15:06:59;18.27;;;3.42;;
35444;SDS011;21562;49.476;6.086;2023-03-09T15:09:28;24.27;;;3.60;;
35444;SDS011;21562;49.476;6.086;2023-03-09T15:11:56;25.42;;;3.78;;
35444;SDS011;21562;49.476;6.086;2023-03-09T15:16:52;19.95;;;3.40;;
35444;SDS011;21562;49.476;6.086;2023-03-09T15:19:19;26.38;;;3.38;;
35444;SDS011;21562;49.476;6.086;2023-03-09T15:21:45;28.00;;;3.78;;
35444;SDS011;21562;49.476;6.086;2023-03-09T15:24:12;25.63;;;3.85;;
35444;SDS011;21562;49.476;6.086;2023-03-09T15:26:39;26.00;;;3.65;;
35444;SDS011;21562;49.476;6.086;2023-03-09T15:29:05;27.60;;;3.67;;
35444;SDS011;21562;49.476;6.086;2023-03-09T15:31:31;24.90;;;4.13;;
35444;SDS011;21562;49.476;6.086;2023-03-09T15:33:57;22.15;;;3.28;;
35444;SDS011;21562;49.476;6.086;2023-03-09T15:36:23;31.40;;;3.33;;
35444;SDS011;21562;49.476;6.086;2023-03-09T15:38:49;27.73;;;3.10;;
35444;SDS011;21562;49.476;6.086;2023-03-09T15:41:15;23.88;;;3.05;;
35444;SDS011;21562;49.476;6.086;2023-03-09T15:43:41;33.05;;;2.97;;
35444;SDS011;21562;49.476;6.086;2023-03-09T15:46:07;33.28;;;4.13;;
35444;SDS011;21562;49.476;6.086;2023-03-09T15:48:33;31.08;;;3.70;;
35444;SDS011;21562;49.476;6.086;2023-03-09T15:50:59;21.52;;;3.38;;
35444;SDS011;21562;49.476;6.086;2023-03-09T15:53:26;23.42;;;3.40;;
35444;SDS011;21562;49.476;6.086;2023-03-09T15:55:58;18.33;;;3.08;;
35444;SDS011;21562;49.476;6.086;2023-03-09T15:58:32;21.60;;;3.10;;
35444;SDS011;21562;49.476;6.086;2023-03-09T16:01:00;21.98;;;3.63;;
35444;SDS011;21562;49.476;6.086;2023-03-09T16:03:28;20.27;;;3.85;;
35444;SDS011;21562;49.476;6.086;2023-03-09T16:05:55;27.10;;;4.38;;
35444;SDS011;21562;49.476;6.086;2023-03-09T16:08:22;22.95;;;4.15;;
35444;SDS011;21562;49.476;6.086;2023-03-09T16:10:48;25.85;;;3.10;;
35444;SDS011;21562;49.476;6.086;2023-03-09T16:13:14;19.65;;;3.03;;
35444;SDS011;21562;49.476;6.086;2023-03-09T16:15:40;19.05;;;3.40;;
35444;SDS011;21562;49.476;6.086;2023-03-09T16:18:06;27.55;;;4.97;;
35444;SDS011;21562;49.476;6.086;2023-03-09T16:20:33;17.67;;;2.58;;
35444;SDS011;21562;49.476;6.086;2023-03-09T16:22:58;23.25;;;3.63;;
35444;SDS011;21562;49.476;6.086;2023-03-09T16:25:24;19.45;;;2.58;;
35444;SDS011;21562;49.476;6.086;2023-03-09T16:27:50;23.67;;;4.47;;
35444;SDS011;21562;49.476;6.086;2023-03-09T16:30:16;20.98;;;3.70;;
35444;SDS011;21562;49.476;6.086;2023-03-09T16:32:42;19.20;;;3.28;;
35444;SDS011;21562;49.476;6.086;2023-03-09T16:35:10;28.08;;;3.92;;
35444;SDS011;21562;49.476;6.086;2023-03-09T16:37:36;24.42;;;4.13;;
35444;SDS011;21562;49.476;6.086;2023-03-09T16:40:03;20.58;;;3.08;;
35444;SDS011;21562;49.476;6.086;2023-03-09T16:42:29;27.23;;;3.42;;